Time;durP1;ratioP1;P1;durP2;ratioP2;P2;SDS_P1;SDS_P2;PMS_P1;PMS_P2;Temp;Humidity;BMP_temperature;BMP_pressure;BME280_temperature;BME280_humidity;BME280_pressure;Samples;Min_cycle;Max_cycle;Signal;HPM_P1;HPM_P2
2021/08/04 00:01:02;;;;;;;0.40;0.20;;;16.90;1.00;;;;;;5033646;28;20192;-63
2021/08/04 00:03:28;;;;;;;0.40;0.20;;;16.90;1.00;;;;;;5033451;28;20482;-63
2021/08/04 00:05:53;;;;;;;0.40;0.20;;;16.70;1.00;;;;;;5033628;28;20178;-63
2021/08/04 00:08:19;;;;;;;0.40;0.20;;;16.70;1.00;;;;;;5033243;28;20425;-63
2021/08/04 00:10:45;;;;;;;0.40;0.20;;;16.90;1.00;;;;;;5033485;28;20274;-63
2021/08/04 00:13:11;;;;;;;0.40;0.20;;;17.10;1.00;;;;;;5033305;28;20165;-63
2021/08/04 00:15:37;;;;;;;0.40;0.20;;;16.90;1.00;;;;;;5033504;28;20424;-63
2021/08/04 00:18:03;;;;;;;0.40;0.20;;;16.90;1.00;;;;;;5034953;28;20511;-63
2021/08/04 00:20:29;;;;;;;0.40;0.20;;;16.80;1.00;;;;;;5033184;28;20507;-63
2021/08/04 00:22:54;;;;;;;0.40;0.20;;;17.10;1.00;;;;;;5033413;28;20477;-63
2021/08/04 00:25:20;;;;;;;0.40;0.20;;;17.20;1.00;;;;;;5033317;28;20598;-63
2021/08/04 00:27:45;;;;;;;0.40;0.20;;;17.40;1.00;;;;;;5033216;28;20174;-63
2021/08/04 00:30:11;;;;;;;0.40;0.20;;;17.60;1.00;;;;;;5033277;28;20252;-63
2021/08/04 00:32:37;;;;;;;0.40;0.20;;;17.70;99.90;;;;;;5034491;28;20254;-63
2021/08/04 00:35:03;;;;;;;0.40;0.20;;;17.90;99.90;;;;;;5037153;28;20428;-63
2021/08/04 00:37:28;;;;;;;0.40;0.20;;;17.60;99.90;;;;;;5036880;28;20182;-63
2021/08/04 00:39:54;;;;;;;0.40;0.20;;;17.30;1.00;;;;;;5035962;28;20305;-63
2021/08/04 00:42:20;;;;;;;0.40;0.20;;;17.40;1.00;;;;;;5036512;28;20201;-63
2021/08/04 00:44:46;;;;;;;0.40;0.20;;;17.20;1.00;;;;;;5036896;28;20511;-63
2021/08/04 00:47:13;;;;;;;0.40;0.20;;;16.90;1.00;;;;;;5036734;28;20518;-63
2021/08/04 00:49:39;;;;;;;0.40;0.20;;;17.30;1.00;;;;;;5036490;28;20468;-63
2021/08/04 00:52:05;;;;;;;0.40;0.20;;;17.50;1.00;;;;;;5037229;28;20515;-63
2021/08/04 00:54:31;;;;;;;0.40;0.17;;;17.50;1.00;;;;;;5036594;28;20432;-63
2021/08/04 00:56:56;;;;;;;0.40;0.20;;;17.50;1.00;;;;;;5036496;28;20424;-63
2021/08/04 00:59:22;;;;;;;1.03;1.03;;;17.20;1.00;;;;;;5036509;28;20196;-63
2021/08/04 01:02:07;;;;;;;0.40;0.17;;;17.00;1.00;;;;;;5036575;28;20689;-63
2021/08/04 01:04:42;;;;;;;0.40;0.20;;;17.10;1.00;;;;;;5036614;28;20499;-63
2021/08/04 01:07:32;;;;;;;0.40;0.20;;;16.70;1.00;;;;;;5036488;28;21004;-63
2021/08/04 01:10:26;;;;;;;0.40;0.17;;;16.90;1.00;;;;;;5036234;28;20472;-63
2021/08/04 01:13:05;;;;;;;0.40;0.20;;;17.40;1.00;;;;;;5036510;28;20439;-63
2021/08/04 01:15:38;;;;;;;0.40;0.20;;;17.70;1.00;;;;;;5036374;28;20467;-63
2021/08/04 01:18:05;;;;;;;16.63;15.90;;;17.70;1.00;;;;;;5036273;28;20513;-63
2021/08/04 01:20:31;;;;;;;0.40;0.20;;;17.40;1.00;;;;;;5036412;28;20431;-63
2021/08/04 01:23:09;;;;;;;0.40;0.20;;;17.40;1.00;;;;;;5036214;28;20424;-63
2021/08/04 01:25:58;;;;;;;0.40;0.20;;;17.60;1.00;;;;;;5036328;28;20423;-63
2021/08/04 01:28:31;;;;;;;0.40;0.20;;;17.80;1.00;;;;;;5035959;28;20513;-63
2021/08/04 01:31:05;;;;;;;0.40;0.20;;;17.70;1.00;;;;;;5035136;28;20478;-63
2021/08/04 01:33:33;;;;;;;0.40;0.20;;;17.60;1.00;;;;;;5036064;28;20432;-63
2021/08/04 01:36:00;;;;;;;0.40;0.20;;;17.80;1.00;;;;;;5034979;28;20910;-63
2021/08/04 01:38:27;;;;;;;0.40;0.20;;;17.90;1.00;;;;;;5034735;28;20829;-63
2021/08/04 01:40:54;;;;;;;0.40;0.20;;;18.00;99.90;;;;;;5035967;28;20514;-63
2021/08/04 01:43:22;;;;;;;0.40;0.20;;;17.80;1.00;;;;;;5035384;28;20423;-63
2021/08/04 01:45:48;;;;;;;0.40;0.20;;;17.90;1.00;;;;;;5035981;28;20866;-63
2021/08/04 01:48:14;;;;;;;0.40;0.20;;;18.00;1.00;;;;;;5035485;28;20424;-63
2021/08/04 01:50:41;;;;;;;1.43;1.33;;;18.20;1.00;;;;;;5035681;28;20494;-63
2021/08/04 01:53:08;;;;;;;0.40;0.20;;;18.00;99.90;;;;;;5035712;28;20192;-64
2021/08/04 01:55:33;;;;;;;0.40;0.20;;;17.90;99.90;;;;;;5035587;28;20440;-63
2021/08/04 01:57:59;;;;;;;0.40;0.20;;;18.00;99.90;;;;;;5035498;28;20824;-63
2021/08/04 02:00:25;;;;;;;0.40;0.20;;;18.10;99.90;;;;;;5035543;28;20177;-63
2021/08/04 02:02:50;;;;;;;0.40;0.20;;;18.10;99.90;;;;;;5035563;28;20610;-63
2021/08/04 02:05:16;;;;;;;0.40;0.23;;;18.00;99.90;;;;;;5035437;28;20190;-63
2021/08/04 02:07:53;;;;;;;0.40;0.20;;;18.00;1.00;;;;;;5035316;28;20250;-63
2021/08/04 02:10:25;;;;;;;0.40;0.20;;;17.70;1.00;;;;;;5035175;28;20201;-63
2021/08/04 02:13:02;;;;;;;0.40;0.20;;;17.70;1.00;;;;;;5035322;28;20566;-63
2021/08/04 02:15:33;;;;;;;0.40;0.20;;;17.40;1.00;;;;;;5035213;28;20411;-63
2021/08/04 02:18:07;;;;;;;0.40;0.20;;;17.10;1.00;;;;;;5035004;28;20452;-63
2021/08/04 02:20:38;;;;;;;0.40;0.20;;;17.10;1.00;;;;;;5035168;28;20507;-63
2021/08/04 02:23:17;;;;;;;0.50;0.40;;;17.10;1.00;;;;;;5035198;28;20794;-64
2021/08/04 02:26:06;;;;;;;0.40;0.20;;;16.80;1.00;;;;;;5035023;28;20419;-64
2021/08/04 02:28:36;;;;;;;0.40;0.20;;;17.00;1.00;;;;;;5034992;28;20420;-64
2021/08/04 02:31:05;;;;;;;0.40;0.20;;;17.20;1.00;;;;;;5034948;28;20801;-64
2021/08/04 02:33:30;;;;;;;0.40;0.20;;;17.30;1.00;;;;;;5034759;28;20866;-64
2021/08/04 02:35:56;;;;;;;0.40;0.20;;;17.40;1.00;;;;;;5034795;28;20516;-64
2021/08/04 02:38:23;;;;;;;0.40;0.20;;;17.30;1.00;;;;;;5034582;28;20209;-64
2021/08/04 02:40:49;;;;;;;0.40;0.20;;;17.30;1.00;;;;;;5035210;28;20921;-63
2021/08/04 02:43:16;;;;;;;0.40;0.20;;;17.30;1.00;;;;;;5034320;28;20428;-63
2021/08/04 02:45:42;;;;;;;0.40;0.20;;;17.10;1.00;;;;;;5034706;28;20436;-63
2021/08/04 02:48:08;;;;;;;0.40;0.20;;;16.80;1.00;;;;;;5034431;28;20435;-63
2021/08/04 02:50:37;;;;;;;0.40;0.20;;;16.70;13.50;;;;;;5035011;28;20537;-63
2021/08/04 02:53:03;;;;;;;0.40;0.10;;;16.90;49.60;;;;;;5034703;28;20428;-63
2021/08/04 02:55:28;;;;;;;0.40;0.20;;;17.00;15.20;;;;;;5033939;28;20201;-63
2021/08/04 02:57:54;;;;;;;0.40;0.20;;;17.00;1.00;;;;;;5034613;28;20903;-63
2021/08/04 03:00:19;;;;;;;0.40;0.20;;;17.00;1.00;;;;;;5034390;28;20526;-63
2021/08/04 03:02:45;;;;;;;0.40;0.20;;;16.70;1.00;;;;;;5034760;28;20258;-63
2021/08/04 03:05:11;;;;;;;0.40;0.20;;;16.50;90.50;;;;;;5034420;28;20240;-63
2021/08/04 03:07:36;;;;;;;0.50;0.30;;;16.30;99.90;;;;;;5034142;28;20185;-63
2021/08/04 03:10:03;;;;;;;0.40;0.17;;;16.00;99.90;;;;;;5034001;28;20567;-63
2021/08/04 03:12:28;;;;;;;0.40;0.20;;;15.90;99.90;;;;;;5034099;28;20185;-61
2021/08/04 03:14:54;;;;;;;0.40;0.20;;;16.00;99.90;;;;;;5033326;28;20429;-62
2021/08/04 03:17:19;;;;;;;0.40;0.20;;;16.20;99.90;;;;;;5034252;28;20177;-62
2021/08/04 03:19:45;;;;;;;0.40;0.20;;;16.30;99.90;;;;;;5034121;28;20654;-62
2021/08/04 03:22:10;;;;;;;0.40;0.20;;;16.80;99.90;;;;;;5034112;28;20294;-63
2021/08/04 03:24:36;;;;;;;0.40;0.20;;;17.00;85.90;;;;;;5034228;28;20248;-63
2021/08/04 03:27:02;;;;;;;0.40;0.10;;;17.00;1.00;;;;;;5034032;28;20181;-63
2021/08/04 03:29:27;;;;;;;0.40;0.20;;;16.70;33.30;;;;;;5033515;28;20182;-63
2021/08/04 03:31:54;;;;;;;0.90;0.73;;;16.70;77.80;;;;;;5033754;28;20177;-64
2021/08/04 03:34:19;;;;;;;0.40;0.20;;;16.60;37.80;;;;;;5033763;28;20177;-64
2021/08/04 03:36:45;;;;;;;0.40;0.20;;;16.50;99.90;;;;;;5033613;28;20416;-64
2021/08/04 03:39:10;;;;;;;0.40;0.20;;;16.40;99.90;;;;;;5033657;28;20253;-63
2021/08/04 03:41:36;;;;;;;0.40;0.20;;;16.30;99.90;;;;;;5033576;28;20648;-63
2021/08/04 03:44:02;;;;;;;0.40;0.20;;;16.20;99.90;;;;;;5033616;28;20687;-63
2021/08/04 03:46:27;;;;;;;0.40;0.20;;;16.20;99.90;;;;;;5033534;28;20185;-63
2021/08/04 03:48:53;;;;;;;0.40;0.20;;;16.20;99.90;;;;;;5033531;28;20195;-63
2021/08/04 03:51:18;;;;;;;0.40;0.20;;;16.20;99.90;;;;;;5032635;28;20596;-64
2021/08/04 03:53:44;;;;;;;0.40;0.20;;;16.40;99.90;;;;;;5033613;28;20173;-64
2021/08/04 03:56:09;;;;;;;0.40;0.20;;;16.30;99.90;;;;;;5033563;28;20247;-64
2021/08/04 03:58:35;;;;;;;0.40;0.20;;;16.30;99.90;;;;;;5033313;28;20196;-64
2021/08/04 04:01:00;;;;;;;0.40;0.20;;;16.50;99.90;;;;;;5033496;28;20508;-63
2021/08/04 04:03:26;;;;;;;0.50;0.20;;;16.70;95.90;;;;;;5033579;28;20182;-63
2021/08/04 04:05:51;;;;;;;0.40;0.20;;;17.00;65.00;;;;;;5033465;28;20189;-63
2021/08/04 04:08:17;;;;;;;0.40;0.20;;;17.00;1.00;;;;;;5035669;28;20256;-63
2021/08/04 04:10:42;;;;;;;0.87;0.87;;;16.70;1.00;;;;;;5037506;28;20216;-63
2021/08/04 04:13:08;;;;;;;0.40;0.20;;;16.40;5.10;;;;;;5036421;28;20184;-63
2021/08/04 04:15:34;;;;;;;0.50;0.50;;;16.20;65.00;;;;;;5037487;28;20178;-63
2021/08/04 04:17:59;;;;;;;0.40;0.20;;;16.30;90.40;;;;;;5037304;28;20203;-63
2021/08/04 04:20:25;;;;;;;0.40;0.20;;;16.50;70.50;;;;;;5037197;28;20231;-63
2021/08/04 04:22:50;;;;;;;0.40;0.20;;;16.30;56.50;;;;;;5037261;28;20181;-63
2021/08/04 04:25:16;;;;;;;0.40;0.10;;;16.30;26.10;;;;;;5037128;28;20570;-63
2021/08/04 04:27:43;;;;;;;0.40;0.20;;;16.10;59.20;;;;;;5037078;28;20189;-63
2021/08/04 04:30:09;;;;;;;0.40;0.20;;;15.90;20.60;;;;;;5036952;28;20471;-63
2021/08/04 04:32:35;;;;;;;0.40;0.20;;;15.90;26.50;;;;;;5037187;28;20523;-62
2021/08/04 04:35:01;;;;;;;0.40;0.20;;;15.80;29.00;;;;;;5037025;28;20423;-62
2021/08/04 04:37:27;;;;;;;0.40;0.20;;;15.80;22.00;;;;;;5036868;28;20527;-62
2021/08/04 04:39:52;;;;;;;0.40;0.20;;;15.90;59.50;;;;;;5036790;28;20521;-62
2021/08/04 04:42:18;;;;;;;0.50;0.43;;;16.10;83.70;;;;;;5035877;28;20196;-62
2021/08/04 04:44:44;;;;;;;0.40;0.20;;;16.10;18.50;;;;;;5036379;28;20174;-62
2021/08/04 04:47:09;;;;;;;0.40;0.20;;;16.00;55.20;;;;;;5036824;28;20173;-62
2021/08/04 04:49:35;;;;;;;0.40;0.20;;;16.10;54.10;;;;;;5035585;28;20239;-62
2021/08/04 04:52:00;;;;;;;0.40;0.20;;;16.20;80.60;;;;;;5037111;28;20274;-62
2021/08/04 04:54:26;;;;;;;0.40;0.20;;;16.30;54.40;;;;;;5036523;28;20189;-62
2021/08/04 04:56:51;;;;;;;0.70;0.43;;;16.20;27.10;;;;;;5036740;28;20267;-62
2021/08/04 04:59:17;;;;;;;0.50;0.27;;;15.90;7.30;;;;;;5037040;28;20232;-66
2021/08/04 05:01:42;;;;;;;1.10;1.03;;;15.90;21.80;;;;;;5036841;28;20178;-67
2021/08/04 05:04:08;;;;;;;0.50;0.30;;;15.80;29.50;;;;;;5036395;28;20635;-67
2021/08/04 05:06:35;;;;;;;0.40;0.13;;;15.80;78.20;;;;;;5036295;28;20178;-67
2021/08/04 05:09:00;;;;;;;0.67;0.67;;;15.90;24.80;;;;;;5036489;28;20658;-60
2021/08/04 05:11:26;;;;;;;0.40;0.20;;;15.80;18.30;;;;;;5035829;28;20467;-63
2021/08/04 05:13:54;;;;;;;0.40;0.20;;;16.00;27.00;;;;;;5036397;28;20634;-63
2021/08/04 05:16:20;;;;;;;0.40;0.20;;;16.30;1.00;;;;;;5035287;28;20485;-62
2021/08/04 05:18:46;;;;;;;0.40;0.20;;;16.20;1.00;;;;;;5035854;28;20515;-62
2021/08/04 05:21:11;;;;;;;0.40;0.20;;;16.30;1.00;;;;;;5036322;28;20173;-63
2021/08/04 05:23:37;;;;;;;13.63;0.97;;;16.10;1.00;;;;;;5036213;28;20185;-64
2021/08/04 05:26:03;;;;;;;0.50;0.20;;;15.90;1.00;;;;;;5036638;28;20523;-64
2021/08/04 05:28:28;;;;;;;0.40;0.20;;;16.00;1.00;;;;;;5036280;28;20190;-63
2021/08/04 05:30:54;;;;;;;1.10;1.00;;;16.00;1.00;;;;;;5035970;28;20716;-63
2021/08/04 05:33:20;;;;;;;0.40;0.20;;;16.30;1.00;;;;;;5036390;28;20255;-63
2021/08/04 05:35:46;;;;;;;0.40;0.20;;;16.50;1.00;;;;;;5036788;28;20568;-63
2021/08/04 05:38:11;;;;;;;0.40;0.20;;;16.40;1.00;;;;;;5035839;28;20439;-64
2021/08/04 05:40:37;;;;;;;0.40;0.20;;;16.50;1.00;;;;;;5034634;28;20187;-64
2021/08/04 05:43:02;;;;;;;1.47;1.13;;;16.40;1.00;;;;;;5035886;28;20209;-64
2021/08/04 05:45:28;;;;;;;0.40;0.20;;;16.80;1.00;;;;;;5035805;28;20178;-64
2021/08/04 05:47:54;;;;;;;1.33;0.60;;;16.90;99.90;;;;;;5035776;28;20192;-61
2021/08/04 05:50:19;;;;;;;0.40;0.20;;;16.60;1.00;;;;;;5035357;28;20460;-61
2021/08/04 05:52:45;;;;;;;0.83;0.43;;;16.50;1.00;;;;;;5035646;28;20546;-61
2021/08/04 05:55:11;;;;;;;0.40;0.20;;;16.60;1.00;;;;;;5035252;28;20246;-62
2021/08/04 05:57:38;;;;;;;0.40;0.20;;;16.80;1.00;;;;;;5032616;28;20209;-61
2021/08/04 06:00:05;;;;;;;0.50;0.17;;;17.00;1.00;;;;;;5035320;28;20195;-61
2021/08/04 06:02:31;;;;;;;0.80;0.80;;;17.30;99.90;;;;;;5035306;28;20489;-61
2021/08/04 06:04:56;;;;;;;0.40;0.20;;;17.00;99.90;;;;;;5035411;28;20522;-61
2021/08/04 06:07:22;;;;;;;0.40;0.20;;;17.00;99.90;;;;;;5035335;28;20428;-59
2021/08/04 06:09:47;;;;;;;0.50;0.37;;;17.00;99.90;;;;;;5035089;28;20209;-59
2021/08/04 06:12:13;;;;;;;0.40;0.20;;;17.10;99.90;;;;;;5034007;28;20181;-61
2021/08/04 06:14:38;;;;;;;0.40;0.20;;;17.50;99.90;;;;;;5035125;28;20196;-62
2021/08/04 06:17:04;;;;;;;0.40;0.20;;;17.70;1.00;;;;;;5034312;28;20173;-61
2021/08/04 06:19:29;;;;;;;0.40;0.20;;;17.30;1.80;;;;;;5034835;28;20264;-61
2021/08/04 06:21:55;;;;;;;0.40;0.20;;;17.50;99.90;;;;;;5034803;28;20177;-61
2021/08/04 06:24:21;;;;;;;1.37;0.40;;;17.60;98.20;;;;;;5034999;28;20166;-62
2021/08/04 06:26:46;;;;;;;0.40;0.20;;;17.60;1.00;;;;;;5034763;28;20446;-61
2021/08/04 06:29:12;;;;;;;0.40;0.20;;;17.50;1.00;;;;;;5034945;28;20650;-61
2021/08/04 06:31:38;;;;;;;0.60;0.53;;;17.50;1.00;;;;;;5033941;28;20205;-62
2021/08/04 06:34:03;;;;;;;0.93;0.30;;;17.50;1.00;;;;;;5035273;28;20209;-61
2021/08/04 06:36:29;;;;;;;0.50;0.30;;;17.80;1.00;;;;;;5034539;28;20174;-61
2021/08/04 06:38:54;;;;;;;0.40;0.20;;;17.70;99.90;;;;;;5034676;28;20260;-61
2021/08/04 06:41:20;;;;;;;0.40;0.20;;;17.60;99.90;;;;;;5035090;28;20252;-61
2021/08/04 06:43:45;;;;;;;0.40;0.20;;;17.60;99.90;;;;;;5034732;28;20205;-61
2021/08/04 06:46:13;;;;;;;0.40;0.20;;;18.20;99.90;;;;;;5034784;28;20197;-61
2021/08/04 06:48:38;;;;;;;0.40;0.20;;;18.40;99.90;;;;;;5035097;28;20178;-61
2021/08/04 06:51:04;;;;;;;2.00;0.77;;;18.40;99.90;;;;;;5034432;28;21022;-61
2021/08/04 06:53:30;;;;;;;1.20;0.60;;;18.30;99.90;;;;;;5035452;28;20428;-61
2021/08/04 06:55:56;;;;;;;0.40;0.20;;;18.10;1.00;;;;;;5036093;28;20585;-61
2021/08/04 06:58:21;;;;;;;0.40;0.20;;;18.30;99.90;;;;;;5036224;28;20311;-61
2021/08/04 07:00:47;;;;;;;0.40;0.20;;;18.40;99.90;;;;;;5036726;28;20211;-61
2021/08/04 07:03:12;;;;;;;0.40;0.20;;;18.60;1.00;;;;;;5035820;28;20239;-61
2021/08/04 07:05:40;;;;;;;0.40;0.20;;;19.30;99.90;;;;;;5035457;28;20259;-61
2021/08/04 07:08:07;;;;;;;0.40;0.20;;;19.30;99.90;;;;;;5036458;28;20186;-60
2021/08/04 07:10:33;;;;;;;0.40;0.20;;;18.80;1.00;;;;;;5037398;28;20478;-60
2021/08/04 07:12:58;;;;;;;0.40;0.20;;;19.30;1.00;;;;;;5037123;28;20424;-60
2021/08/04 07:15:24;;;;;;;0.40;0.20;;;19.50;1.00;;;;;;5037390;28;20638;-60
2021/08/04 07:17:50;;;;;;;0.50;0.40;;;19.40;99.90;;;;;;5037258;28;20235;-60
2021/08/04 07:20:18;;;;;;;0.40;0.20;;;19.00;99.90;;;;;;5036557;28;20185;-60
2021/08/04 07:22:44;;;;;;;0.87;0.87;;;19.10;99.90;;;;;;5036844;28;20432;-60
2021/08/04 07:25:10;;;;;;;0.40;0.20;;;18.90;99.90;;;;;;5036239;28;20434;-60
2021/08/04 07:27:36;;;;;;;0.40;0.20;;;18.60;99.90;;;;;;5036175;28;20426;-60
2021/08/04 07:30:04;;;;;;;0.50;0.30;;;18.80;1.00;;;;;;5035149;28;20468;-59
2021/08/04 07:32:30;;;;;;;0.60;0.50;;;18.90;1.00;;;;;;5034629;28;20213;-60
2021/08/04 07:35:00;;;;;;;0.73;0.33;;;18.40;1.00;;;;;;5034430;28;20432;-59
2021/08/04 07:37:26;;;;;;;0.50;0.30;;;18.40;1.00;;;;;;5034560;28;20185;-60
2021/08/04 07:39:51;;;;;;;0.40;0.20;;;18.30;1.00;;;;;;5033887;28;20431;-60
2021/08/04 07:42:17;;;;;;;1.00;0.40;;;18.20;1.00;;;;;;5033782;28;20451;-60
2021/08/04 07:44:42;;;;;;;0.40;0.20;;;18.40;1.00;;;;;;5034905;28;20198;-60
2021/08/04 07:47:08;;;;;;;0.50;0.23;;;18.50;99.90;;;;;;5048974;28;20193;-60
2021/08/04 07:49:33;;;;;;;0.40;0.20;;;18.10;1.00;;;;;;5033212;28;20615;-60
2021/08/04 07:51:59;;;;;;;0.50;0.20;;;17.90;1.00;;;;;;5033753;28;20209;-60
2021/08/04 07:54:24;;;;;;;0.50;0.30;;;17.90;2.40;;;;;;5049086;28;20205;-60
2021/08/04 07:56:50;;;;;;;0.40;0.20;;;17.80;1.00;;;;;;5033523;28;20646;-60
2021/08/04 07:59:16;;;;;;;0.60;0.40;;;18.20;49.40;;;;;;5033500;28;20619;-60
2021/08/04 08:01:41;;;;;;;0.40;0.30;;;18.10;94.80;;;;;;5033505;28;20197;-60
2021/08/04 08:04:07;;;;;;;0.40;0.20;;;17.90;99.90;;;;;;5033272;28;20563;-60
2021/08/04 08:06:32;;;;;;;2.30;1.13;;;18.30;99.90;;;;;;5033220;28;20189;-60
2021/08/04 08:08:58;;;;;;;0.50;0.30;;;18.00;99.90;;;;;;5032358;28;20492;-60
2021/08/04 08:11:23;;;;;;;0.50;0.33;;;17.90;1.00;;;;;;5033371;28;20209;-60
2021/08/04 08:13:49;;;;;;;0.40;0.20;;;18.00;1.00;;;;;;5032036;28;20177;-60
2021/08/04 08:16:15;;;;;;;0.40;0.20;;;18.30;1.00;;;;;;5032173;28;20538;-62
2021/08/04 08:18:40;;;;;;;0.77;0.77;;;18.50;1.00;;;;;;5033076;28;20575;-60
2021/08/04 08:21:06;;;;;;;0.40;0.20;;;18.20;1.00;;;;;;5032722;28;20236;-60
2021/08/04 08:23:31;;;;;;;0.40;0.20;;;18.10;1.00;;;;;;5033063;28;20486;-60
2021/08/04 08:25:57;;;;;;;1.00;0.57;;;18.40;99.90;;;;;;5033219;28;20347;-60
2021/08/04 08:28:23;;;;;;;1.10;0.50;;;18.70;99.90;;;;;;5032627;28;20192;-60
2021/08/04 08:30:48;;;;;;;0.40;0.20;;;19.20;99.90;;;;;;5033532;28;20240;-60
2021/08/04 08:33:14;;;;;;;0.40;0.20;;;18.90;1.00;;;;;;5033061;28;20174;-60
2021/08/04 08:35:39;;;;;;;0.80;0.47;;;19.00;1.00;;;;;;5033157;28;20185;-60
2021/08/04 08:38:05;;;;;;;0.60;0.43;;;18.70;99.90;;;;;;5032664;28;20173;-61
2021/08/04 08:40:30;;;;;;;0.40;0.20;;;18.50;1.00;;;;;;5032995;28;20629;-61
2021/08/04 08:42:56;;;;;;;0.40;0.20;;;18.70;1.00;;;;;;5033514;28;20177;-62
2021/08/04 08:45:22;;;;;;;0.40;0.10;;;18.80;1.00;;;;;;5033093;28;20185;-61
2021/08/04 08:47:49;;;;;;;0.40;0.20;;;18.80;1.00;;;;;;5032913;28;20184;-61
2021/08/04 08:50:18;;;;;;;1.47;1.37;;;18.50;1.00;;;;;;5032822;28;20463;-61
2021/08/04 08:52:48;;;;;;;1.93;0.60;;;18.90;1.00;;;;;;5033011;28;20920;-61
2021/08/04 08:55:14;;;;;;;0.53;0.30;;;18.80;1.00;;;;;;5036483;28;20535;-61
2021/08/04 08:57:39;;;;;;;0.40;0.20;;;18.80;1.00;;;;;;5036346;28;20506;-61
2021/08/04 09:00:06;;;;;;;0.70;0.50;;;19.00;1.00;;;;;;5036324;28;20204;-61
2021/08/04 09:02:32;;;;;;;0.50;0.30;;;19.10;1.00;;;;;;5036541;28;20621;-61
2021/08/04 09:05:04;;;;;;;0.50;0.20;;;19.40;99.90;;;;;;5036408;28;20510;-61
2021/08/04 09:07:35;;;;;;;0.50;0.20;;;19.50;99.90;;;;;;5036476;28;20261;-61
2021/08/04 09:10:03;;;;;;;0.40;0.20;;;19.50;99.90;;;;;;5036196;28;20563;-63
2021/08/04 09:12:28;;;;;;;0.40;0.10;;;20.10;99.90;;;;;;5036341;28;20432;-65
2021/08/04 09:14:54;;;;;;;0.40;0.20;;;20.80;1.00;;;;;;5036492;28;20830;-65
2021/08/04 09:17:19;;;;;;;0.40;0.20;;;20.50;99.90;;;;;;5036352;28;20173;-64
2021/08/04 09:19:51;;;;;;;0.40;0.20;;;20.90;1.00;;;;;;5036322;28;20188;-65
2021/08/04 09:22:24;;;;;;;1.00;0.60;;;21.50;99.90;;;;;;5036253;28;20170;-64
2021/08/04 09:25:10;;;;;;;0.50;0.20;;;21.30;73.40;;;;;;5035900;28;20428;-65
2021/08/04 09:27:38;;;;;;;0.60;0.40;;;20.80;1.00;;;;;;5035910;28;20427;-66
2021/08/04 09:30:04;;;;;;;0.50;0.20;;;21.20;99.90;;;;;;5034685;28;20472;-65
2021/08/04 09:32:31;;;;;;;0.60;0.43;;;21.10;99.90;;;;;;5035997;28;20416;-64
2021/08/04 09:35:05;;;;;;;0.50;0.33;;;21.40;1.00;;;;;;5038023;28;20439;-61
2021/08/04 09:37:31;;;;;;;0.50;0.20;;;21.90;99.90;;;;;;5037800;28;20423;-63
2021/08/04 09:39:58;;;;;;;0.50;0.20;;;22.00;99.90;;;;;;5054731;28;20509;-62
2021/08/04 09:43:00;;;;;;;0.50;0.20;;;22.00;1.00;;;;;;5040203;28;20439;-62
2021/08/04 09:45:46;;;;;;;0.50;0.20;;;20.90;1.00;;;;;;5015989;28;20816;-62
2021/08/04 09:48:14;;;;;;;0.50;0.20;;;21.40;99.90;;;;;;5034865;28;20523;-61
2021/08/04 09:50:55;;;;;;;0.50;0.20;;;21.90;1.00;;;;;;5035670;28;20476;-64
2021/08/04 09:53:41;;;;;;;0.50;0.20;;;22.00;99.90;;;;;;5036633;28;20486;-61
2021/08/04 09:56:07;;;;;;;0.50;0.20;;;21.50;99.90;;;;;;5037217;28;20460;-64
2021/08/04 09:58:35;;;;;;;0.80;0.43;;;21.70;1.00;;;;;;5036890;28;20482;-65
2021/08/04 10:01:03;;;;;;;0.50;0.20;;;21.10;1.00;;;;;;5037394;28;20428;-63
2021/08/04 10:03:29;;;;;;;1.00;0.40;;;21.10;99.90;;;;;;5036332;28;20428;-65
2021/08/04 10:05:55;;;;;;;0.50;0.40;;;20.90;1.00;;;;;;5037378;28;20432;-64
2021/08/04 10:08:21;;;;;;;0.50;0.30;;;20.40;1.00;;;;;;5035323;28;20423;-64
2021/08/04 10:10:50;;;;;;;0.50;0.20;;;20.80;99.90;;;;;;5036492;28;20207;-62
2021/08/04 10:13:18;;;;;;;0.50;0.20;;;21.00;99.90;;;;;;5037159;28;20635;-64
2021/08/04 10:15:46;;;;;;;0.50;0.20;;;20.70;99.90;;;;;;5035190;28;20428;-64
2021/08/04 10:18:17;;;;;;;0.50;0.20;;;20.60;1.00;;;;;;5034823;28;20543;-64
2021/08/04 10:20:47;;;;;;;0.50;0.10;;;21.50;1.00;;;;;;5035143;28;20456;-64
2021/08/04 10:23:15;;;;;;;0.60;0.33;;;21.50;1.00;;;;;;5034872;28;21008;-64
2021/08/04 10:25:42;;;;;;;0.40;0.20;;;21.20;1.00;;;;;;5034863;28;20428;-64
2021/08/04 10:28:08;;;;;;;0.50;0.20;;;20.80;1.00;;;;;;5034974;28;20488;-61
2021/08/04 10:30:35;;;;;;;0.97;0.77;;;20.60;99.90;;;;;;5034935;28;20565;-61
2021/08/04 10:33:07;;;;;;;0.70;0.33;;;20.70;99.90;;;;;;5034965;28;20423;-62
2021/08/04 10:35:42;;;;;;;0.50;0.20;;;20.80;99.90;;;;;;5034706;28;20428;-61
2021/08/04 10:38:12;;;;;;;1.27;0.80;;;21.40;99.90;;;;;;5033968;28;20430;-61
2021/08/04 10:40:38;;;;;;;0.80;0.47;;;21.00;99.90;;;;;;5035504;28;20562;-61
2021/08/04 10:43:04;;;;;;;0.57;0.40;;;20.60;48.40;;;;;;5035169;28;20478;-61
2021/08/04 10:45:31;;;;;;;0.50;0.10;;;20.30;99.90;;;;;;5034933;28;20181;-61
2021/08/04 10:48:23;;;;;;;0.50;0.30;;;20.70;1.00;;;;;;5033628;28;20189;-61
2021/08/04 10:51:17;;;;;;;0.50;0.20;;;20.90;1.00;;;;;;5035066;28;20990;-61
2021/08/04 10:54:18;;;;;;;0.50;0.20;;;21.20;1.00;;;;;;5035023;28;20452;-61
2021/08/04 10:56:44;;;;;;;0.50;0.20;;;21.90;1.00;;;;;;5023063;28;20794;-64
2021/08/04 10:59:09;;;;;;;0.87;0.30;;;22.40;99.30;;;;;;5034891;28;20419;-65
2021/08/04 11:01:41;;;;;;;0.40;0.20;;;22.60;1.00;;;;;;5034837;28;20276;-65
2021/08/04 11:04:10;;;;;;;0.50;0.20;;;22.00;99.90;;;;;;5033337;28;20205;-63
2021/08/04 11:07:07;;;;;;;0.70;0.70;;;22.20;1.00;;;;;;5034156;28;20439;-63
2021/08/04 11:09:43;;;;;;;0.50;0.20;;;22.00;99.90;;;;;;5033754;28;20432;-64
2021/08/04 11:12:16;;;;;;;0.50;0.20;;;22.10;99.90;;;;;;5034125;28;20497;-64
2021/08/04 11:14:49;;;;;;;0.90;0.50;;;22.10;99.90;;;;;;5034024;28;20539;-64
2021/08/04 11:17:16;;;;;;;0.70;0.40;;;22.50;1.00;;;;;;5032850;28;20428;-64
2021/08/04 11:20:04;;;;;;;0.60;0.30;;;22.40;1.00;;;;;;5033767;28;20435;-63
2021/08/04 11:22:31;;;;;;;0.50;0.20;;;21.50;99.90;;;;;;5033871;28;20459;-61
2021/08/04 11:25:03;;;;;;;0.70;0.50;;;21.50;99.90;;;;;;5033793;28;20781;-62
2021/08/04 11:27:32;;;;;;;0.50;0.20;;;22.20;1.00;;;;;;5032369;28;20493;-61
2021/08/04 11:29:59;;;;;;;0.50;0.20;;;22.10;62.50;;;;;;5033492;28;20889;-61
2021/08/04 11:32:27;;;;;;;0.90;0.50;;;22.70;1.00;;;;;;5033677;28;20494;-61
2021/08/04 11:34:53;;;;;;;0.87;0.40;;;22.40;1.00;;;;;;5033836;28;20485;-61
2021/08/04 11:37:19;;;;;;;0.50;0.20;;;22.10;1.00;;;;;;5033559;28;20441;-61
2021/08/04 11:39:56;;;;;;;0.50;0.30;;;22.70;1.00;;;;;;5033681;28;20424;-61
2021/08/04 11:42:23;;;;;;;0.60;0.33;;;22.40;1.00;;;;;;5033646;28;20424;-61
2021/08/04 11:44:48;;;;;;;0.73;0.60;;;21.60;99.90;;;;;;5033784;28;20424;-61
2021/08/04 11:47:14;;;;;;;1.30;0.60;;;21.20;1.00;;;;;;5033496;28;20813;-61
2021/08/04 11:49:46;;;;;;;0.50;0.23;;;21.40;1.00;;;;;;5033681;28;20177;-61
2021/08/04 11:52:22;;;;;;;0.90;0.73;;;21.50;99.90;;;;;;5033592;28;20432;-61
2021/08/04 11:55:03;;;;;;;0.50;0.20;;;21.80;1.00;;;;;;5033613;28;20486;-62
2021/08/04 11:57:30;;;;;;;0.60;0.40;;;21.90;99.90;;;;;;5033341;28;20432;-61
2021/08/04 12:00:07;;;;;;;0.50;0.20;;;21.40;99.90;;;;;;5033277;28;20515;-61
2021/08/04 12:02:36;;;;;;;0.50;0.20;;;21.60;1.00;;;;;;5033835;28;20883;-62
2021/08/04 12:05:03;;;;;;;1.13;0.77;;;22.10;31.80;;;;;;5033517;28;20432;-63
2021/08/04 12:07:31;;;;;;;1.00;0.83;;;22.50;1.00;;;;;;5033342;28;20470;-61
2021/08/04 12:09:59;;;;;;;0.60;0.33;;;22.50;1.00;;;;;;5032182;28;20468;-61
2021/08/04 12:12:35;;;;;;;0.97;0.70;;;22.40;1.00;;;;;;5033119;28;20428;-61
2021/08/04 12:15:02;;;;;;;0.50;0.20;;;21.60;1.00;;;;;;5033463;28;20463;-61
2021/08/04 12:17:33;;;;;;;0.57;0.20;;;21.70;99.90;;;;;;5033161;28;20432;-61
2021/08/04 12:20:22;;;;;;;0.70;0.60;;;21.90;99.90;;;;;;5033075;28;20927;-61
2021/08/04 12:23:03;;;;;;;0.60;0.50;;;22.00;1.00;;;;;;5033272;28;20510;-61
2021/08/04 12:25:31;;;;;;;0.80;0.40;;;21.50;99.90;;;;;;5033506;28;20463;-61
2021/08/04 12:28:00;;;;;;;0.50;0.20;;;21.70;1.00;;;;;;5033190;28;20428;-61
2021/08/04 12:30:38;;;;;;;0.60;0.47;;;21.60;1.00;;;;;;5036925;28;20540;-61
2021/08/04 12:33:19;;;;;;;0.50;0.17;;;21.50;99.90;;;;;;5037612;28;20443;-62
2021/08/04 12:36:04;;;;;;;0.50;0.20;;;21.90;43.50;;;;;;5037177;28;20499;-61
2021/08/04 12:38:33;;;;;;;0.50;0.20;;;21.90;1.00;;;;;;5052350;28;20435;-61
2021/08/04 12:40:59;;;;;;;0.60;0.30;;;21.40;99.90;;;;;;5036967;28;20468;-61
2021/08/04 12:43:40;;;;;;;0.47;0.17;;;21.50;99.90;;;;;;5037002;28;20428;-62
2021/08/04 12:46:09;;;;;;;0.50;0.20;;;22.00;23.20;;;;;;5036876;28;20535;-61
2021/08/04 12:48:43;;;;;;;0.70;0.47;;;22.20;1.00;;;;;;5036688;28;20446;-61
2021/08/04 12:51:14;;;;;;;0.50;0.20;;;21.80;1.00;;;;;;5029284;28;20462;-61
2021/08/04 12:53:41;;;;;;;0.60;0.50;;;21.70;1.00;;;;;;5028430;28;20849;-61
2021/08/04 12:56:12;;;;;;;1.73;1.17;;;21.80;99.90;;;;;;5028339;28;20469;-61
2021/08/04 12:58:58;;;;;;;2.60;1.17;;;21.50;1.00;;;;;;5027875;28;20439;-61